sensor_id;sensor_type;location;lat;lon;timestamp;temperature;humidity
70300;HTU21D;57704;51.112;5.878;2022-08-19T00:02:15;22.87;65.91
70300;HTU21D;57704;51.112;5.878;2022-08-19T00:04:41;22.85;65.92
70300;HTU21D;57704;51.112;5.878;2022-08-19T00:07:07;22.81;65.89
70300;HTU21D;57704;51.112;5.878;2022-08-19T00:09:33;22.75;66.11
70300;HTU21D;57704;51.112;5.878;2022-08-19T00:12:00;22.71;66.22
70300;HTU21D;57704;51.112;5.878;2022-08-19T00:14:28;22.68;66.36
70300;HTU21D;57704;51.112;5.878;2022-08-19T00:16:57;22.69;66.32
70300;HTU21D;57704;51.112;5.878;2022-08-19T00:19:23;22.66;66.34
70300;HTU21D;57704;51.112;5.878;2022-08-19T00:21:50;22.65;66.46
70300;HTU21D;57704;51.112;5.878;2022-08-19T00:24:16;22.63;66.51
70300;HTU21D;57704;51.112;5.878;2022-08-19T00:26:44;22.61;66.55
70300;HTU21D;57704;51.112;5.878;2022-08-19T00:29:13;22.56;66.65
70300;HTU21D;57704;51.112;5.878;2022-08-19T00:31:41;22.53;66.67
70300;HTU21D;57704;51.112;5.878;2022-08-19T00:34:10;22.52;66.71
70300;HTU21D;57704;51.112;5.878;2022-08-19T00:36:37;22.48;66.72
70300;HTU21D;57704;51.112;5.878;2022-08-19T00:39:03;22.46;66.83
70300;HTU21D;57704;51.112;5.878;2022-08-19T00:41:29;22.40;66.90
70300;HTU21D;57704;51.112;5.878;2022-08-19T00:46:28;22.38;67.04
70300;HTU21D;57704;51.112;5.878;2022-08-19T00:48:56;22.35;67.05
70300;HTU21D;57704;51.112;5.878;2022-08-19T00:51:26;22.34;67.03
70300;HTU21D;57704;51.112;5.878;2022-08-19T00:53:57;22.31;67.17
70300;HTU21D;57704;51.112;5.878;2022-08-19T00:56:25;22.28;67.20
70300;HTU21D;57704;51.112;5.878;2022-08-19T00:58:55;22.27;67.29
70300;HTU21D;57704;51.112;5.878;2022-08-19T01:01:22;22.22;67.37
70300;HTU21D;57704;51.112;5.878;2022-08-19T01:03:48;22.20;67.40
70300;HTU21D;57704;51.112;5.878;2022-08-19T01:06:14;22.19;67.45
70300;HTU21D;57704;51.112;5.878;2022-08-19T01:08:40;22.17;67.47
70300;HTU21D;57704;51.112;5.878;2022-08-19T01:11:06;22.14;67.52
70300;HTU21D;57704;51.112;5.878;2022-08-19T01:13:36;22.11;67.59
70300;HTU21D;57704;51.112;5.878;2022-08-19T01:16:08;22.10;67.65
70300;HTU21D;57704;51.112;5.878;2022-08-19T01:18:40;22.07;67.78
70300;HTU21D;57704;51.112;5.878;2022-08-19T01:21:20;22.06;67.80
70300;HTU21D;57704;51.112;5.878;2022-08-19T01:23:47;22.03;67.84
70300;HTU21D;57704;51.112;5.878;2022-08-19T01:26:18;21.96;68.07
70300;HTU21D;57704;51.112;5.878;2022-08-19T01:28:46;21.96;68.19
70300;HTU21D;57704;51.112;5.878;2022-08-19T01:31:17;21.94;68.24
70300;HTU21D;57704;51.112;5.878;2022-08-19T01:33:44;21.93;68.28
70300;HTU21D;57704;51.112;5.878;2022-08-19T01:36:22;21.91;68.38
70300;HTU21D;57704;51.112;5.878;2022-08-19T01:38:48;21.89;68.47
70300;HTU21D;57704;51.112;5.878;2022-08-19T01:41:17;21.88;68.44
70300;HTU21D;57704;51.112;5.878;2022-08-19T01:43:44;21.87;68.50
70300;HTU21D;57704;51.112;5.878;2022-08-19T01:46:10;21.84;68.53
70300;HTU21D;57704;51.112;5.878;2022-08-19T01:48:39;21.83;68.53
70300;HTU21D;57704;51.112;5.878;2022-08-19T01:51:07;21.80;68.65
70300;HTU21D;57704;51.112;5.878;2022-08-19T01:53:33;21.79;68.73
70300;HTU21D;57704;51.112;5.878;2022-08-19T01:56:00;21.77;68.77
70300;HTU21D;57704;51.112;5.878;2022-08-19T01:58:34;21.75;68.81
70300;HTU21D;57704;51.112;5.878;2022-08-19T02:01:04;21.75;68.88
70300;HTU21D;57704;51.112;5.878;2022-08-19T02:03:31;21.72;69.04
70300;HTU21D;57704;51.112;5.878;2022-08-19T02:05:59;21.69;69.13
70300;HTU21D;57704;51.112;5.878;2022-08-19T02:08:29;21.68;69.23
70300;HTU21D;57704;51.112;5.878;2022-08-19T02:10:56;21.67;69.24
70300;HTU21D;57704;51.112;5.878;2022-08-19T02:13:23;21.68;69.29
70300;HTU21D;57704;51.112;5.878;2022-08-19T02:15:49;21.67;69.29
70300;HTU21D;57704;51.112;5.878;2022-08-19T02:18:16;21.65;69.33
70300;HTU21D;57704;51.112;5.878;2022-08-19T02:20:43;21.62;69.47
70300;HTU21D;57704;51.112;5.878;2022-08-19T02:23:12;21.57;69.71
70300;HTU21D;57704;51.112;5.878;2022-08-19T02:25:38;21.52;69.85
70300;HTU21D;57704;51.112;5.878;2022-08-19T02:28:05;21.50;69.99
70300;HTU21D;57704;51.112;5.878;2022-08-19T02:30:32;21.50;70.03
70300;HTU21D;57704;51.112;5.878;2022-08-19T02:32:58;21.51;69.97
70300;HTU21D;57704;51.112;5.878;2022-08-19T02:35:25;21.50;69.98
70300;HTU21D;57704;51.112;5.878;2022-08-19T02:37:52;21.50;70.20
70300;HTU21D;57704;51.112;5.878;2022-08-19T02:40:36;21.48;70.26
70300;HTU21D;57704;51.112;5.878;2022-08-19T02:43:05;21.48;70.26
70300;HTU21D;57704;51.112;5.878;2022-08-19T02:45:34;21.49;70.24
70300;HTU21D;57704;51.112;5.878;2022-08-19T02:48:01;21.48;70.39
70300;HTU21D;57704;51.112;5.878;2022-08-19T02:50:27;21.46;70.47
70300;HTU21D;57704;51.112;5.878;2022-08-19T02:52:53;21.43;70.48
70300;HTU21D;57704;51.112;5.878;2022-08-19T02:55:19;21.46;70.50
70300;HTU21D;57704;51.112;5.878;2022-08-19T02:57:47;21.46;70.52
70300;HTU21D;57704;51.112;5.878;2022-08-19T03:00:13;21.47;70.45
70300;HTU21D;57704;51.112;5.878;2022-08-19T03:02:40;21.49;70.42
70300;HTU21D;57704;51.112;5.878;2022-08-19T03:05:08;21.50;70.30
70300;HTU21D;57704;51.112;5.878;2022-08-19T03:07:36;21.50;70.25
70300;HTU21D;57704;51.112;5.878;2022-08-19T03:10:03;21.49;70.22
70300;HTU21D;57704;51.112;5.878;2022-08-19T03:12:29;21.49;70.23
70300;HTU21D;57704;51.112;5.878;2022-08-19T03:14:56;21.50;70.16
70300;HTU21D;57704;51.112;5.878;2022-08-19T03:17:22;21.46;70.26
70300;HTU21D;57704;51.112;5.878;2022-08-19T03:19:48;21.40;70.37
70300;HTU21D;57704;51.112;5.878;2022-08-19T03:22:16;21.38;70.36
70300;HTU21D;57704;51.112;5.878;2022-08-19T03:24:43;21.33;70.52
70300;HTU21D;57704;51.112;5.878;2022-08-19T03:27:09;21.29;70.59
70300;HTU21D;57704;51.112;5.878;2022-08-19T03:29:37;21.28;70.56
70300;HTU21D;57704;51.112;5.878;2022-08-19T03:32:05;21.27;70.57
70300;HTU21D;57704;51.112;5.878;2022-08-19T03:34:34;21.27;70.65
70300;HTU21D;57704;51.112;5.878;2022-08-19T03:37:08;21.28;70.57
70300;HTU21D;57704;51.112;5.878;2022-08-19T03:39:37;21.25;70.52
70300;HTU21D;57704;51.112;5.878;2022-08-19T03:42:04;21.22;70.52
70300;HTU21D;57704;51.112;5.878;2022-08-19T03:44:31;21.18;70.58
70300;HTU21D;57704;51.112;5.878;2022-08-19T03:46:59;21.17;70.64
70300;HTU21D;57704;51.112;5.878;2022-08-19T03:49:29;21.16;70.66
70300;HTU21D;57704;51.112;5.878;2022-08-19T03:51:57;21.15;70.73
70300;HTU21D;57704;51.112;5.878;2022-08-19T03:54:27;21.17;70.71
70300;HTU21D;57704;51.112;5.878;2022-08-19T03:56:55;21.11;70.71
70300;HTU21D;57704;51.112;5.878;2022-08-19T03:59:26;21.13;70.73
70300;HTU21D;57704;51.112;5.878;2022-08-19T04:01:54;21.09;70.76
70300;HTU21D;57704;51.112;5.878;2022-08-19T04:04:21;21.04;70.88
70300;HTU21D;57704;51.112;5.878;2022-08-19T04:06:48;21.00;71.02
70300;HTU21D;57704;51.112;5.878;2022-08-19T04:09:15;20.96;71.13
70300;HTU21D;57704;51.112;5.878;2022-08-19T04:11:51;20.92;71.23
70300;HTU21D;57704;51.112;5.878;2022-08-19T04:14:23;20.93;71.29
70300;HTU21D;57704;51.112;5.878;2022-08-19T04:16:58;20.88;71.33
70300;HTU21D;57704;51.112;5.878;2022-08-19T04:19:26;20.83;71.38
70300;HTU21D;57704;51.112;5.878;2022-08-19T04:21:54;20.83;71.48
70300;HTU21D;57704;51.112;5.878;2022-08-19T04:24:22;20.86;71.38
70300;HTU21D;57704;51.112;5.878;2022-08-19T04:26:49;20.86;71.32
70300;HTU21D;57704;51.112;5.878;2022-08-19T04:29:20;20.85;71.33
70300;HTU21D;57704;51.112;5.878;2022-08-19T04:31:48;20.88;71.35
70300;HTU21D;57704;51.112;5.878;2022-08-19T04:34:17;20.93;71.25
70300;HTU21D;57704;51.112;5.878;2022-08-19T04:36:58;20.98;71.18
70300;HTU21D;57704;51.112;5.878;2022-08-19T04:39:28;21.00;71.20
70300;HTU21D;57704;51.112;5.878;2022-08-19T04:42:15;21.04;71.21
70300;HTU21D;57704;51.112;5.878;2022-08-19T04:45:00;21.07;71.13
70300;HTU21D;57704;51.112;5.878;2022-08-19T04:47:31;21.11;71.10
70300;HTU21D;57704;51.112;5.878;2022-08-19T04:50:01;21.14;71.13
70300;HTU21D;57704;51.112;5.878;2022-08-19T04:52:27;21.15;70.98
70300;HTU21D;57704;51.112;5.878;2022-08-19T04:54:53;21.10;71.15
70300;HTU21D;57704;51.112;5.878;2022-08-19T04:57:21;21.04;71.16
70300;HTU21D;57704;51.112;5.878;2022-08-19T04:59:54;20.92;71.50
70300;HTU21D;57704;51.112;5.878;2022-08-19T05:02:20;20.89;71.60
70300;HTU21D;57704;51.112;5.878;2022-08-19T05:04:58;20.84;71.73
70300;HTU21D;57704;51.112;5.878;2022-08-19T05:07:27;20.86;71.71
70300;HTU21D;57704;51.112;5.878;2022-08-19T05:09:53;20.87;71.62
70300;HTU21D;57704;51.112;5.878;2022-08-19T05:12:22;20.91;71.61
70300;HTU21D;57704;51.112;5.878;2022-08-19T05:14:49;20.98;71.48
70300;HTU21D;57704;51.112;5.878;2022-08-19T05:17:15;21.03;71.23
70300;HTU21D;57704;51.112;5.878;2022-08-19T05:19:42;21.03;71.17
70300;HTU21D;57704;51.112;5.878;2022-08-19T05:22:26;21.05;71.17
70300;HTU21D;57704;51.112;5.878;2022-08-19T05:24:59;20.96;71.21
70300;HTU21D;57704;51.112;5.878;2022-08-19T05:27:26;20.92;71.48
70300;HTU21D;57704;51.112;5.878;2022-08-19T05:29:52;20.93;71.54
70300;HTU21D;57704;51.112;5.878;2022-08-19T05:32:18;20.94;71.48
70300;HTU21D;57704;51.112;5.878;2022-08-19T05:34:44;20.98;71.49
70300;HTU21D;57704;51.112;5.878;2022-08-19T05:37:10;20.95;71.44
70300;HTU21D;57704;51.112;5.878;2022-08-19T05:39:37;20.99;71.43
70300;HTU21D;57704;51.112;5.878;2022-08-19T05:42:08;21.01;71.39
70300;HTU21D;57704;51.112;5.878;2022-08-19T05:44:38;21.03;71.35
70300;HTU21D;57704;51.112;5.878;2022-08-19T05:47:06;21.04;71.31
70300;HTU21D;57704;51.112;5.878;2022-08-19T05:49:35;21.03;71.26
70300;HTU21D;57704;51.112;5.878;2022-08-19T05:52:04;21.02;71.26
70300;HTU21D;57704;51.112;5.878;2022-08-19T05:54:32;21.05;71.26
70300;HTU21D;57704;51.112;5.878;2022-08-19T05:56:58;21.13;71.29
70300;HTU21D;57704;51.112;5.878;2022-08-19T05:59:28;21.22;71.04
70300;HTU21D;57704;51.112;5.878;2022-08-19T06:01:57;21.25;70.93
70300;HTU21D;57704;51.112;5.878;2022-08-19T06:04:26;21.30;70.90
70300;HTU21D;57704;51.112;5.878;2022-08-19T06:06:53;21.36;70.77
70300;HTU21D;57704;51.112;5.878;2022-08-19T06:09:21;21.44;70.48
70300;HTU21D;57704;51.112;5.878;2022-08-19T06:11:54;21.43;70.57
70300;HTU21D;57704;51.112;5.878;2022-08-19T06:14:24;21.45;70.54
70300;HTU21D;57704;51.112;5.878;2022-08-19T06:16:50;21.54;70.42
70300;HTU21D;57704;51.112;5.878;2022-08-19T06:19:21;21.63;70.08
70300;HTU21D;57704;51.112;5.878;2022-08-19T06:21:49;21.68;69.88
70300;HTU21D;57704;51.112;5.878;2022-08-19T06:24:20;21.77;69.88
70300;HTU21D;57704;51.112;5.878;2022-08-19T06:26:48;21.87;69.36
70300;HTU21D;57704;51.112;5.878;2022-08-19T06:29:16;21.91;69.08
70300;HTU21D;57704;51.112;5.878;2022-08-19T06:31:47;21.93;68.96
70300;HTU21D;57704;51.112;5.878;2022-08-19T06:34:16;22.05;69.00
70300;HTU21D;57704;51.112;5.878;2022-08-19T06:36:45;22.22;68.39
70300;HTU21D;57704;51.112;5.878;2022-08-19T06:39:33;22.31;67.82
70300;HTU21D;57704;51.112;5.878;2022-08-19T06:42:04;22.38;67.47
70300;HTU21D;57704;51.112;5.878;2022-08-19T06:44:36;22.54;67.41
70300;HTU21D;57704;51.112;5.878;2022-08-19T06:47:05;22.80;66.78
70300;HTU21D;57704;51.112;5.878;2022-08-19T06:49:32;22.90;66.24
70300;HTU21D;57704;51.112;5.878;2022-08-19T06:51:59;23.05;65.79
70300;HTU21D;57704;51.112;5.878;2022-08-19T06:54:27;23.16;65.56
70300;HTU21D;57704;51.112;5.878;2022-08-19T06:56:58;23.32;65.21
70300;HTU21D;57704;51.112;5.878;2022-08-19T06:59:29;23.49;64.71
70300;HTU21D;57704;51.112;5.878;2022-08-19T07:02:02;23.64;64.10
70300;HTU21D;57704;51.112;5.878;2022-08-19T07:04:33;23.68;63.46
70300;HTU21D;57704;51.112;5.878;2022-08-19T07:07:06;23.67;63.65
70300;HTU21D;57704;51.112;5.878;2022-08-19T07:09:40;23.71;63.29
70300;HTU21D;57704;51.112;5.878;2022-08-19T07:12:11;23.83;63.33
70300;HTU21D;57704;51.112;5.878;2022-08-19T07:14:39;24.14;62.79
70300;HTU21D;57704;51.112;5.878;2022-08-19T07:17:10;24.43;62.36
70300;HTU21D;57704;51.112;5.878;2022-08-19T07:19:38;24.66;61.72
70300;HTU21D;57704;51.112;5.878;2022-08-19T07:22:12;24.93;61.14
70300;HTU21D;57704;51.112;5.878;2022-08-19T07:24:44;25.06;60.63
70300;HTU21D;57704;51.112;5.878;2022-08-19T07:27:21;25.19;59.44
70300;HTU21D;57704;51.112;5.878;2022-08-19T07:29:56;25.08;59.38
70300;HTU21D;57704;51.112;5.878;2022-08-19T07:32:29;25.13;59.50
70300;HTU21D;57704;51.112;5.878;2022-08-19T07:35:06;25.34;58.61
70300;HTU21D;57704;51.112;5.878;2022-08-19T07:37:38;25.53;57.61
70300;HTU21D;57704;51.112;5.878;2022-08-19T07:40:12;25.61;56.60
70300;HTU21D;57704;51.112;5.878;2022-08-19T07:42:41;25.75;56.72
70300;HTU21D;57704;51.112;5.878;2022-08-19T07:45:14;25.91;55.39
70300;HTU21D;57704;51.112;5.878;2022-08-19T07:47:48;26.24;55.71
70300;HTU21D;57704;51.112;5.878;2022-08-19T07:50:21;26.54;54.46
70300;HTU21D;57704;51.112;5.878;2022-08-19T07:52:49;26.86;54.50
70300;HTU21D;57704;51.112;5.878;2022-08-19T07:55:21;27.47;53.23
70300;HTU21D;57704;51.112;5.878;2022-08-19T07:57:53;27.99;51.37
70300;HTU21D;57704;51.112;5.878;2022-08-19T08:00:20;28.29;51.30
70300;HTU21D;57704;51.112;5.878;2022-08-19T08:02:46;28.80;48.95
70300;HTU21D;57704;51.112;5.878;2022-08-19T08:05:12;28.97;49.25
70300;HTU21D;57704;51.112;5.878;2022-08-19T08:07:56;28.94;49.47
70300;HTU21D;57704;51.112;5.878;2022-08-19T08:10:41;29.19;48.51
70300;HTU21D;57704;51.112;5.878;2022-08-19T08:13:07;29.28;47.57
70300;HTU21D;57704;51.112;5.878;2022-08-19T08:15:36;29.22;48.31
70300;HTU21D;57704;51.112;5.878;2022-08-19T08:18:20;29.36;48.05
70300;HTU21D;57704;51.112;5.878;2022-08-19T08:21:49;29.68;47.94
70300;HTU21D;57704;51.112;5.878;2022-08-19T08:24:29;30.36;46.85
70300;HTU21D;57704;51.112;5.878;2022-08-19T08:27:02;30.79;45.74
70300;HTU21D;57704;51.112;5.878;2022-08-19T08:29:30;31.00;43.03
70300;HTU21D;57704;51.112;5.878;2022-08-19T08:32:16;30.55;44.61
70300;HTU21D;57704;51.112;5.878;2022-08-19T08:35:04;30.48;45.38
70300;HTU21D;57704;51.112;5.878;2022-08-19T08:37:38;30.72;45.04
70300;HTU21D;57704;51.112;5.878;2022-08-19T08:40:33;30.80;44.15
70300;HTU21D;57704;51.112;5.878;2022-08-19T08:43:29;30.95;44.17
70300;HTU21D;57704;51.112;5.878;2022-08-19T08:51:59;30.60;44.67
70300;HTU21D;57704;51.112;5.878;2022-08-19T08:54:41;30.83;43.80
70300;HTU21D;57704;51.112;5.878;2022-08-19T08:57:15;30.67;43.15
70300;HTU21D;57704;51.112;5.878;2022-08-19T08:59:48;30.49;43.93
70300;HTU21D;57704;51.112;5.878;2022-08-19T09:02:18;30.23;43.90
70300;HTU21D;57704;51.112;5.878;2022-08-19T09:04:44;29.90;44.20
70300;HTU21D;57704;51.112;5.878;2022-08-19T09:13:37;29.07;45.66
70300;HTU21D;57704;51.112;5.878;2022-08-19T09:16:17;28.95;45.63
70300;HTU21D;57704;51.112;5.878;2022-08-19T09:18:58;28.73;46.04
70300;HTU21D;57704;51.112;5.878;2022-08-19T09:21:27;28.60;45.12
70300;HTU21D;57704;51.112;5.878;2022-08-19T09:23:54;28.32;46.64
70300;HTU21D;57704;51.112;5.878;2022-08-19T09:26:22;28.33;47.32
70300;HTU21D;57704;51.112;5.878;2022-08-19T09:28:51;28.47;46.99
70300;HTU21D;57704;51.112;5.878;2022-08-19T09:31:24;28.65;47.23
70300;HTU21D;57704;51.112;5.878;2022-08-19T09:33:51;29.01;45.93
70300;HTU21D;57704;51.112;5.878;2022-08-19T09:36:20;29.27;45.96
70300;HTU21D;57704;51.112;5.878;2022-08-19T09:38:48;29.83;45.14
70300;HTU21D;57704;51.112;5.878;2022-08-19T09:41:18;30.33;44.15
70300;HTU21D;57704;51.112;5.878;2022-08-19T09:43:47;30.77;43.86
70300;HTU21D;57704;51.112;5.878;2022-08-19T09:46:14;31.21;42.83
70300;HTU21D;57704;51.112;5.878;2022-08-19T09:48:42;31.40;42.16
70300;HTU21D;57704;51.112;5.878;2022-08-19T09:51:12;31.37;41.71
70300;HTU21D;57704;51.112;5.878;2022-08-19T09:53:43;31.37;41.40
70300;HTU21D;57704;51.112;5.878;2022-08-19T09:56:10;31.60;40.60
70300;HTU21D;57704;51.112;5.878;2022-08-19T09:58:37;31.43;40.85
70300;HTU21D;57704;51.112;5.878;2022-08-19T10:01:06;31.39;41.14
70300;HTU21D;57704;51.112;5.878;2022-08-19T10:03:34;31.68;39.27
70300;HTU21D;57704;51.112;5.878;2022-08-19T10:06:03;31.88;40.12
70300;HTU21D;57704;51.112;5.878;2022-08-19T10:08:36;31.97;38.37
70300;HTU21D;57704;51.112;5.878;2022-08-19T10:11:03;31.69;37.93
70300;HTU21D;57704;51.112;5.878;2022-08-19T10:13:31;31.84;38.22
70300;HTU21D;57704;51.112;5.878;2022-08-19T10:16:24;31.74;38.75
70300;HTU21D;57704;51.112;5.878;2022-08-19T10:18:52;31.70;39.11
70300;HTU21D;57704;51.112;5.878;2022-08-19T10:21:23;31.90;38.39
70300;HTU21D;57704;51.112;5.878;2022-08-19T10:23:51;32.01;37.35
70300;HTU21D;57704;51.112;5.878;2022-08-19T10:26:24;32.13;38.31
70300;HTU21D;57704;51.112;5.878;2022-08-19T10:28:50;32.45;37.62
70300;HTU21D;57704;51.112;5.878;2022-08-19T10:31:20;32.38;37.24
70300;HTU21D;57704;51.112;5.878;2022-08-19T10:33:48;32.35;37.05
70300;HTU21D;57704;51.112;5.878;2022-08-19T10:36:20;32.26;37.45
70300;HTU21D;57704;51.112;5.878;2022-08-19T10:38:51;32.10;37.40
70300;HTU21D;57704;51.112;5.878;2022-08-19T10:41:20;32.03;37.24
70300;HTU21D;57704;51.112;5.878;2022-08-19T10:43:51;32.18;37.72
70300;HTU21D;57704;51.112;5.878;2022-08-19T10:46:18;32.45;34.65
70300;HTU21D;57704;51.112;5.878;2022-08-19T10:48:45;32.28;37.13
70300;HTU21D;57704;51.112;5.878;2022-08-19T10:51:11;32.11;37.01
70300;HTU21D;57704;51.112;5.878;2022-08-19T10:53:57;32.04;37.00
70300;HTU21D;57704;51.112;5.878;2022-08-19T10:56:24;32.16;36.19
70300;HTU21D;57704;51.112;5.878;2022-08-19T10:59:10;32.25;35.80
70300;HTU21D;57704;51.112;5.878;2022-08-19T11:01:40;32.34;35.95
70300;HTU21D;57704;51.112;5.878;2022-08-19T11:04:07;32.82;35.14
70300;HTU21D;57704;51.112;5.878;2022-08-19T11:06:40;33.31;32.07
70300;HTU21D;57704;51.112;5.878;2022-08-19T11:09:09;33.74;32.48
70300;HTU21D;57704;51.112;5.878;2022-08-19T11:11:37;34.05;32.31
70300;HTU21D;57704;51.112;5.878;2022-08-19T11:14:09;34.41;30.58
70300;HTU21D;57704;51.112;5.878;2022-08-19T11:16:37;34.53;31.25
70300;HTU21D;57704;51.112;5.878;2022-08-19T11:19:08;34.55;31.78
70300;HTU21D;57704;51.112;5.878;2022-08-19T11:21:39;34.57;31.99
70300;HTU21D;57704;51.112;5.878;2022-08-19T11:24:11;34.91;31.90
70300;HTU21D;57704;51.112;5.878;2022-08-19T11:26:39;35.42;30.67
70300;HTU21D;57704;51.112;5.878;2022-08-19T11:29:07;35.72;29.35
70300;HTU21D;57704;51.112;5.878;2022-08-19T11:31:44;35.99;29.33
70300;HTU21D;57704;51.112;5.878;2022-08-19T11:34:15;36.11;28.98
70300;HTU21D;57704;51.112;5.878;2022-08-19T11:36:44;36.24;28.61
70300;HTU21D;57704;51.112;5.878;2022-08-19T11:39:13;36.39;28.07
70300;HTU21D;57704;51.112;5.878;2022-08-19T11:41:39;36.62;27.87
70300;HTU21D;57704;51.112;5.878;2022-08-19T11:44:07;37.16;24.84
70300;HTU21D;57704;51.112;5.878;2022-08-19T11:46:35;37.58;26.30
70300;HTU21D;57704;51.112;5.878;2022-08-19T11:49:03;37.85;26.23
70300;HTU21D;57704;51.112;5.878;2022-08-19T11:51:31;38.30;25.34
70300;HTU21D;57704;51.112;5.878;2022-08-19T11:53:59;38.55;24.01
70300;HTU21D;57704;51.112;5.878;2022-08-19T11:56:28;38.69;24.82
70300;HTU21D;57704;51.112;5.878;2022-08-19T11:58:55;39.21;24.05
70300;HTU21D;57704;51.112;5.878;2022-08-19T12:01:24;39.33;23.79
70300;HTU21D;57704;51.112;5.878;2022-08-19T12:03:53;39.22;23.89
70300;HTU21D;57704;51.112;5.878;2022-08-19T12:06:26;39.22;24.14
70300;HTU21D;57704;51.112;5.878;2022-08-19T12:09:06;39.26;23.93
70300;HTU21D;57704;51.112;5.878;2022-08-19T12:11:34;39.25;24.08
70300;HTU21D;57704;51.112;5.878;2022-08-19T12:14:00;39.36;23.57
70300;HTU21D;57704;51.112;5.878;2022-08-19T12:16:29;39.49;23.11
70300;HTU21D;57704;51.112;5.878;2022-08-19T12:18:56;39.26;23.64
70300;HTU21D;57704;51.112;5.878;2022-08-19T12:21:27;39.38;23.86
70300;HTU21D;57704;51.112;5.878;2022-08-19T12:23:56;38.96;23.42
70300;HTU21D;57704;51.112;5.878;2022-08-19T12:26:24;38.09;25.56
70300;HTU21D;57704;51.112;5.878;2022-08-19T12:28:51;38.24;25.65
70300;HTU21D;57704;51.112;5.878;2022-08-19T12:31:17;38.48;25.26
70300;HTU21D;57704;51.112;5.878;2022-08-19T12:33:47;38.29;23.57
70300;HTU21D;57704;51.112;5.878;2022-08-19T12:36:16;37.78;25.17
70300;HTU21D;57704;51.112;5.878;2022-08-19T12:38:44;37.85;26.44
70300;HTU21D;57704;51.112;5.878;2022-08-19T12:41:14;38.37;25.65
70300;HTU21D;57704;51.112;5.878;2022-08-19T12:43:41;38.70;25.13
70300;HTU21D;57704;51.112;5.878;2022-08-19T12:46:07;38.94;24.84
70300;HTU21D;57704;51.112;5.878;2022-08-19T12:48:34;38.61;24.31
70300;HTU21D;57704;51.112;5.878;2022-08-19T12:51:06;37.55;25.47
70300;HTU21D;57704;51.112;5.878;2022-08-19T12:53:33;36.26;27.49
70300;HTU21D;57704;51.112;5.878;2022-08-19T12:55:59;36.07;29.14
70300;HTU21D;57704;51.112;5.878;2022-08-19T12:58:26;36.47;28.67
70300;HTU21D;57704;51.112;5.878;2022-08-19T13:00:52;36.67;28.19
70300;HTU21D;57704;51.112;5.878;2022-08-19T13:03:18;36.88;27.85
70300;HTU21D;57704;51.112;5.878;2022-08-19T13:05:44;37.01;28.10
70300;HTU21D;57704;51.112;5.878;2022-08-19T13:08:10;37.22;27.36
70300;HTU21D;57704;51.112;5.878;2022-08-19T13:10:37;37.42;27.29
70300;HTU21D;57704;51.112;5.878;2022-08-19T13:13:06;37.26;26.94
70300;HTU21D;57704;51.112;5.878;2022-08-19T13:15:35;37.05;27.91
70300;HTU21D;57704;51.112;5.878;2022-08-19T13:18:01;36.98;28.05
70300;HTU21D;57704;51.112;5.878;2022-08-19T13:20:27;37.05;27.69
70300;HTU21D;57704;51.112;5.878;2022-08-19T13:22:54;36.81;28.03
70300;HTU21D;57704;51.112;5.878;2022-08-19T13:25:20;36.31;29.13
70300;HTU21D;57704;51.112;5.878;2022-08-19T13:27:47;36.09;29.51
70300;HTU21D;57704;51.112;5.878;2022-08-19T13:30:16;35.87;29.66
70300;HTU21D;57704;51.112;5.878;2022-08-19T13:33:01;35.26;30.95
70300;HTU21D;57704;51.112;5.878;2022-08-19T13:35:53;34.77;31.83
70300;HTU21D;57704;51.112;5.878;2022-08-19T13:38:23;34.31;32.44
70300;HTU21D;57704;51.112;5.878;2022-08-19T13:40:52;33.80;33.31
70300;HTU21D;57704;51.112;5.878;2022-08-19T13:43:19;33.40;34.13
70300;HTU21D;57704;51.112;5.878;2022-08-19T13:45:48;33.09;34.97
70300;HTU21D;57704;51.112;5.878;2022-08-19T13:48:14;32.91;35.66
70300;HTU21D;57704;51.112;5.878;2022-08-19T13:50:43;32.77;36.05
70300;HTU21D;57704;51.112;5.878;2022-08-19T13:53:10;32.63;36.59
70300;HTU21D;57704;51.112;5.878;2022-08-19T13:55:39;32.32;37.18
70300;HTU21D;57704;51.112;5.878;2022-08-19T13:58:05;32.08;37.83
70300;HTU21D;57704;51.112;5.878;2022-08-19T14:00:36;31.95;38.23
70300;HTU21D;57704;51.112;5.878;2022-08-19T14:03:02;31.76;38.75
70300;HTU21D;57704;51.112;5.878;2022-08-19T14:05:30;31.63;39.01
70300;HTU21D;57704;51.112;5.878;2022-08-19T14:07:57;31.53;39.37
70300;HTU21D;57704;51.112;5.878;2022-08-19T14:10:25;31.49;39.47
70300;HTU21D;57704;51.112;5.878;2022-08-19T14:12:56;31.43;39.72
70300;HTU21D;57704;51.112;5.878;2022-08-19T14:15:25;31.83;39.66
70300;HTU21D;57704;51.112;5.878;2022-08-19T14:17:53;32.34;38.64
70300;HTU21D;57704;51.112;5.878;2022-08-19T14:20:20;32.67;37.78
70300;HTU21D;57704;51.112;5.878;2022-08-19T14:22:47;32.92;37.11
70300;HTU21D;57704;51.112;5.878;2022-08-19T14:25:19;33.08;36.88
70300;HTU21D;57704;51.112;5.878;2022-08-19T14:27:46;32.94;36.71
70300;HTU21D;57704;51.112;5.878;2022-08-19T14:30:14;32.53;37.58
70300;HTU21D;57704;51.112;5.878;2022-08-19T14:32:42;32.28;37.88
70300;HTU21D;57704;51.112;5.878;2022-08-19T14:35:13;31.78;38.88
70300;HTU21D;57704;51.112;5.878;2022-08-19T14:37:42;31.55;39.62
70300;HTU21D;57704;51.112;5.878;2022-08-19T14:40:10;31.44;40.10
70300;HTU21D;57704;51.112;5.878;2022-08-19T14:42:37;31.46;40.14
70300;HTU21D;57704;51.112;5.878;2022-08-19T14:45:04;31.57;40.12
70300;HTU21D;57704;51.112;5.878;2022-08-19T14:47:33;31.55;40.05
70300;HTU21D;57704;51.112;5.878;2022-08-19T14:49:59;31.43;40.10
70300;HTU21D;57704;51.112;5.878;2022-08-19T14:52:25;31.31;40.42
70300;HTU21D;57704;51.112;5.878;2022-08-19T14:54:51;31.21;40.65
70300;HTU21D;57704;51.112;5.878;2022-08-19T14:57:17;31.12;40.94
70300;HTU21D;57704;51.112;5.878;2022-08-19T14:59:43;31.15;41.03
70300;HTU21D;57704;51.112;5.878;2022-08-19T15:02:10;31.13;41.10
70300;HTU21D;57704;51.112;5.878;2022-08-19T15:04:37;31.12;41.13
70300;HTU21D;57704;51.112;5.878;2022-08-19T15:07:04;31.07;41.52
70300;HTU21D;57704;51.112;5.878;2022-08-19T15:09:31;31.12;41.65
70300;HTU21D;57704;51.112;5.878;2022-08-19T15:11:59;31.27;41.60
70300;HTU21D;57704;51.112;5.878;2022-08-19T15:14:26;31.43;41.36
70300;HTU21D;57704;51.112;5.878;2022-08-19T15:16:53;31.59;40.92
70300;HTU21D;57704;51.112;5.878;2022-08-19T15:19:19;31.53;40.86
70300;HTU21D;57704;51.112;5.878;2022-08-19T15:21:45;31.44;41.10
70300;HTU21D;57704;51.112;5.878;2022-08-19T15:24:11;31.34;40.83
70300;HTU21D;57704;51.112;5.878;2022-08-19T15:26:37;31.04;41.42
70300;HTU21D;57704;51.112;5.878;2022-08-19T15:29:04;30.95;41.70
70300;HTU21D;57704;51.112;5.878;2022-08-19T15:31:31;30.85;41.50
70300;HTU21D;57704;51.112;5.878;2022-08-19T15:34:02;30.65;41.60
70300;HTU21D;57704;51.112;5.878;2022-08-19T15:36:28;30.44;42.28
70300;HTU21D;57704;51.112;5.878;2022-08-19T15:38:55;30.31;42.51
70300;HTU21D;57704;51.112;5.878;2022-08-19T15:41:25;30.10;42.97
70300;HTU21D;57704;51.112;5.878;2022-08-19T15:43:55;30.04;43.14
70300;HTU21D;57704;51.112;5.878;2022-08-19T15:46:25;30.00;43.38